createdAt,value
2023-04-09T00:02:23.512Z,45.53
2023-04-09T00:04:54.397Z,50.60
2023-04-09T00:07:27.470Z,48.03
2023-04-09T00:09:56.671Z,48.90
2023-04-09T00:12:25.433Z,52.17
2023-04-09T00:14:55.663Z,52.13
2023-04-09T00:17:28.032Z,49.17
2023-04-09T00:19:57.103Z,54.55
2023-04-09T00:22:27.421Z,55.55
2023-04-09T00:24:57.580Z,57.85
2023-04-09T00:27:26.872Z,63.15
2023-04-09T00:29:56.896Z,57.03
2023-04-09T00:32:27.539Z,59.72
2023-04-09T00:34:56.274Z,56.15
2023-04-09T00:37:24.746Z,60.60
2023-04-09T00:39:54.414Z,61.67
2023-04-09T00:42:28.976Z,63.75
2023-04-09T00:44:57.893Z,60.40
2023-04-09T00:47:32.176Z,57.78
2023-04-09T00:50:02.824Z,63.05
2023-04-09T00:52:34.133Z,62.30
2023-04-09T00:55:06.650Z,59.97
2023-04-09T00:57:36.453Z,63.25
2023-04-09T01:00:07.602Z,63.08
2023-04-09T01:02:38.630Z,67.45
2023-04-09T01:05:09.686Z,67.93
2023-04-09T01:07:57.211Z,69.10
2023-04-09T01:10:39.632Z,64.65
2023-04-09T01:13:19.039Z,71.95
2023-04-09T01:15:54.015Z,66.03
2023-04-09T01:18:32.537Z,69.75
2023-04-09T01:21:08.168Z,67.30
2023-04-09T01:23:49.228Z,68.55
2023-04-09T01:26:31.951Z,65.10
2023-04-09T01:29:04.347Z,73.38
2023-04-09T01:31:38.363Z,71.57
2023-04-09T01:34:10.119Z,70.63
2023-04-09T01:36:41.971Z,72.38
2023-04-09T01:39:11.286Z,72.60
2023-04-09T01:41:42.614Z,72.50
2023-04-09T01:44:17.909Z,75.50
2023-04-09T01:46:49.168Z,69.50
2023-04-09T01:49:21.240Z,75.63
2023-04-09T01:51:50.715Z,72.25
2023-04-09T01:54:20.769Z,75.68
2023-04-09T01:56:50.554Z,69.50
2023-04-09T01:59:21.384Z,74.88
2023-04-09T02:01:56.626Z,72.95
2023-04-09T02:07:09.894Z,74.60
2023-04-09T02:09:44.499Z,76.75
2023-04-09T02:12:17.913Z,77.35
2023-04-09T02:14:53.861Z,78.07
2023-04-09T02:17:22.626Z,73.85
2023-04-09T02:19:52.040Z,76.95
2023-04-09T02:22:21.145Z,73.47
2023-04-09T02:24:52.419Z,76.75
2023-04-09T02:27:21.449Z,75.28
2023-04-09T02:29:56.065Z,80.15
2023-04-09T02:32:25.004Z,76.90
2023-04-09T02:34:54.813Z,76.03
2023-04-09T02:37:26.256Z,79.22
2023-04-09T02:39:55.154Z,80.65
2023-04-09T02:42:24.214Z,76.97
2023-04-09T02:44:56.200Z,83.63
2023-04-09T02:47:26.793Z,80.97
2023-04-09T02:49:58.797Z,79.05
2023-04-09T02:52:27.470Z,78.40
2023-04-09T02:54:56.731Z,81.18
2023-04-09T02:57:27.706Z,79.57
2023-04-09T02:59:58.895Z,74.30
2023-04-09T03:02:28.506Z,75.90
2023-04-09T03:04:58.490Z,75.38
2023-04-09T03:07:27.924Z,76.60
2023-04-09T03:09:56.537Z,82.22
2023-04-09T03:12:26.777Z,80.95
2023-04-09T03:14:56.006Z,75.68
2023-04-09T03:17:27.359Z,80.13
2023-04-09T03:19:56.469Z,79.72
2023-04-09T03:22:26.434Z,73.93
2023-04-09T03:24:57.461Z,76.22
2023-04-09T03:27:26.883Z,74.68
2023-04-09T03:29:57.604Z,74.82
2023-04-09T03:32:28.797Z,78.93
2023-04-09T03:34:59.116Z,75.05
2023-04-09T03:37:30.941Z,76.20
2023-04-09T03:40:04.110Z,76.38
2023-04-09T03:42:35.361Z,74.00
2023-04-09T03:45:05.280Z,70.60
2023-04-09T03:47:37.007Z,74.15
2023-04-09T03:50:06.951Z,78.20
2023-04-09T03:52:35.840Z,72.95
2023-04-09T03:55:06.622Z,67.97
2023-04-09T03:57:35.085Z,66.70
2023-04-09T04:00:04.296Z,73.60
2023-04-09T04:02:34.477Z,69.75
2023-04-09T04:05:07.412Z,77.38
2023-04-09T04:07:37.860Z,70.00
2023-04-09T04:10:08.310Z,78.57
2023-04-09T04:12:37.422Z,70.15
2023-04-09T04:15:09.905Z,78.72
2023-04-09T04:17:38.826Z,71.45
2023-04-09T04:20:13.228Z,72.57
2023-04-09T04:22:42.317Z,69.32
2023-04-09T04:25:12.601Z,69.45
2023-04-09T04:27:43.535Z,65.32
2023-04-09T04:30:14.185Z,72.47
2023-04-09T04:32:43.588Z,72.30
2023-04-09T04:35:14.499Z,67.95
2023-04-09T04:37:43.692Z,70.00
2023-04-09T04:40:12.831Z,64.35
2023-04-09T04:42:44.177Z,68.32
2023-04-09T04:45:13.440Z,62.80
2023-04-09T04:47:43.162Z,63.78
2023-04-09T04:50:14.066Z,65.72
2023-04-09T04:52:43.896Z,60.25
2023-04-09T04:55:13.209Z,66.80
2023-04-09T04:57:43.723Z,65.72
2023-04-09T05:00:16.441Z,69.13
2023-04-09T05:02:46.930Z,67.97
2023-04-09T05:05:19.761Z,63.22
2023-04-09T05:07:50.078Z,74.18
2023-04-09T05:10:19.361Z,72.70
2023-04-09T05:12:48.347Z,65.03
2023-04-09T05:15:18.341Z,65.72
2023-04-09T05:17:49.868Z,66.50
2023-04-09T05:20:22.821Z,69.18
2023-04-09T05:22:52.497Z,67.82
2023-04-09T05:25:21.183Z,66.10
2023-04-09T05:27:50.283Z,64.28
2023-04-09T05:30:19.059Z,63.08
2023-04-09T05:32:50.572Z,61.45
2023-04-09T05:35:22.747Z,63.85
2023-04-09T05:37:51.192Z,60.63
2023-04-09T05:40:23.123Z,64.45
2023-04-09T05:42:51.861Z,61.65
2023-04-09T05:45:22.850Z,62.35
2023-04-09T05:47:53.704Z,59.00
2023-04-09T05:50:24.194Z,58.20
2023-04-09T05:52:54.050Z,55.08
2023-04-09T05:55:24.205Z,55.55
2023-04-09T05:57:54.359Z,58.97
2023-04-09T06:00:22.899Z,60.08
2023-04-09T06:02:54.624Z,58.13
2023-04-09T06:05:25.603Z,57.50
2023-04-09T06:07:53.919Z,56.40
2023-04-09T06:10:23.050Z,55.38
2023-04-09T06:12:52.190Z,65.15
2023-04-09T06:15:22.114Z,50.67
2023-04-09T06:17:51.587Z,58.28
2023-04-09T06:20:20.374Z,57.63
2023-04-09T06:22:51.104Z,58.78
2023-04-09T06:25:21.211Z,61.83
2023-04-09T06:27:51.372Z,54.13
2023-04-09T06:30:20.448Z,61.10
2023-04-09T06:32:54.216Z,57.05
2023-04-09T06:35:25.423Z,62.22
2023-04-09T06:37:58.878Z,54.25
2023-04-09T06:40:28.733Z,55.78
2023-04-09T06:42:57.415Z,50.47
2023-04-09T06:45:26.406Z,54.95
2023-04-09T06:47:55.578Z,46.70
2023-04-09T06:50:24.723Z,47.58
2023-04-09T06:52:56.101Z,50.28
2023-04-09T06:55:26.892Z,50.13
2023-04-09T06:57:55.999Z,47.38
2023-04-09T07:00:28.387Z,49.08
2023-04-09T07:03:00.062Z,50.58
2023-04-09T07:05:29.648Z,46.60
2023-04-09T07:08:00.237Z,49.22
2023-04-09T07:10:29.588Z,52.63
2023-04-09T07:12:58.434Z,52.03
2023-04-09T07:15:27.367Z,47.10
2023-04-09T07:17:57.851Z,54.10
2023-04-09T07:20:28.070Z,51.22
2023-04-09T07:23:01.443Z,51.95
2023-04-09T07:25:30.328Z,51.88
2023-04-09T07:27:58.882Z,55.38
2023-04-09T07:30:28.314Z,54.42
2023-04-09T07:32:57.354Z,53.47
2023-04-09T07:35:25.891Z,55.22
2023-04-09T07:37:54.491Z,57.10
2023-04-09T07:40:27.460Z,57.10
2023-04-09T07:42:56.054Z,55.10
2023-04-09T07:45:24.839Z,59.33
2023-04-09T07:47:56.851Z,57.75
2023-04-09T07:50:26.178Z,55.83
2023-04-09T07:53:00.839Z,58.53
2023-04-09T07:55:34.165Z,58.60
2023-04-09T07:58:05.387Z,55.03
2023-04-09T08:00:34.956Z,57.00
2023-04-09T08:03:04.123Z,55.20
2023-04-09T08:05:32.986Z,55.88
2023-04-09T08:08:01.572Z,57.25
2023-04-09T08:10:31.812Z,55.30
2023-04-09T08:13:00.867Z,57.85
2023-04-09T08:15:31.211Z,55.13
2023-04-09T08:18:03.617Z,52.10
2023-04-09T08:20:33.180Z,52.92
2023-04-09T08:23:02.386Z,53.08
2023-04-09T08:25:32.786Z,52.03
2023-04-09T08:28:01.373Z,51.22
2023-04-09T08:30:34.166Z,51.60
2023-04-09T08:33:03.726Z,52.65
2023-04-09T08:35:35.360Z,53.10
2023-04-09T08:38:04.309Z,51.67
2023-04-09T08:40:38.840Z,51.05
2023-04-09T08:43:09.652Z,49.93
2023-04-09T08:45:41.949Z,51.28
2023-04-09T08:48:12.362Z,48.50
2023-04-09T08:50:46.314Z,51.75
2023-04-09T08:53:17.522Z,42.72
2023-04-09T08:55:48.524Z,48.38
2023-04-09T08:58:19.407Z,47.95
2023-04-09T09:00:49.578Z,46.28
2023-04-09T09:03:21.727Z,47.55
2023-04-09T09:05:51.221Z,48.28
2023-04-09T09:08:27.885Z,52.38
2023-04-09T09:11:00.748Z,53.42
2023-04-09T09:13:30.414Z,46.72
2023-04-09T09:16:16.477Z,45.42
2023-04-09T09:18:46.393Z,46.58
2023-04-09T09:21:16.838Z,47.80
2023-04-09T09:23:48.674Z,48.13
2023-04-09T09:26:27.986Z,49.25
2023-04-09T09:28:58.976Z,49.13
2023-04-09T09:31:33.465Z,46.45
2023-04-09T09:34:11.553Z,48.08
2023-04-09T09:36:41.626Z,46.10
2023-04-09T09:39:12.389Z,47.97
2023-04-09T09:41:43.769Z,46.50
2023-04-09T09:44:32.323Z,44.13
2023-04-09T09:47:03.969Z,44.78
2023-04-09T09:49:32.402Z,43.92
2023-04-09T09:52:06.291Z,44.83
2023-04-09T09:54:44.012Z,42.50
2023-04-09T09:57:18.416Z,44.72
2023-04-09T09:59:55.179Z,46.20
2023-04-09T10:02:27.172Z,46.53
2023-04-09T10:04:55.753Z,42.00
2023-04-09T10:07:26.004Z,44.58
2023-04-09T10:09:58.807Z,45.95
2023-04-09T10:12:31.955Z,43.25
2023-04-09T10:15:04.711Z,41.58
2023-04-09T10:17:34.846Z,41.35
2023-04-09T10:20:17.272Z,42.35
2023-04-09T10:22:52.111Z,41.08
2023-04-09T10:25:22.387Z,42.22
2023-04-09T10:28:03.751Z,37.30
2023-04-09T10:30:36.835Z,41.05
2023-04-09T10:33:13.066Z,39.20
2023-04-09T10:35:44.357Z,39.90
2023-04-09T10:38:16.366Z,39.60
2023-04-09T10:40:51.534Z,40.40
2023-04-09T10:43:24.175Z,36.70
2023-04-09T10:45:57.749Z,40.60
2023-04-09T10:48:27.226Z,34.80
2023-04-09T10:50:56.430Z,37.78
2023-04-09T10:53:30.083Z,33.88
2023-04-09T10:55:58.829Z,37.00
2023-04-09T10:58:31.334Z,36.38
2023-04-09T11:01:04.245Z,42.90
2023-04-09T11:03:43.243Z,38.33
2023-04-09T11:06:19.463Z,36.53
2023-04-09T11:08:48.497Z,38.85
2023-04-09T11:11:18.475Z,36.97
2023-04-09T11:13:49.072Z,33.50
2023-04-09T11:16:24.280Z,35.08
2023-04-09T11:18:57.543Z,33.45
2023-04-09T11:21:31.666Z,36.53
2023-04-09T11:24:00.742Z,33.63
2023-04-09T11:26:38.685Z,34.33
2023-04-09T11:29:12.478Z,31.52
2023-04-09T11:31:45.372Z,29.60
2023-04-09T11:34:14.343Z,26.02
2023-04-09T11:36:43.149Z,27.83
2023-04-09T11:39:13.441Z,28.40
2023-04-09T11:41:42.416Z,24.45
2023-04-09T11:44:22.810Z,24.85
2023-04-09T11:46:53.181Z,26.05
2023-04-09T11:49:22.509Z,27.67
2023-04-09T11:51:55.005Z,28.38
2023-04-09T11:54:23.711Z,30.02
2023-04-09T11:56:56.193Z,27.80
2023-04-09T11:59:28.416Z,24.15
2023-04-09T12:02:00.416Z,26.10
2023-04-09T12:04:30.131Z,24.20
2023-04-09T12:07:00.043Z,24.30
2023-04-09T12:09:31.689Z,25.40
2023-04-09T12:12:02.604Z,20.33
2023-04-09T12:14:34.849Z,22.48
2023-04-09T12:17:03.517Z,21.50
2023-04-09T12:19:32.924Z,18.52
2023-04-09T12:22:02.070Z,19.10
2023-04-09T12:24:31.527Z,18.30
2023-04-09T12:27:01.688Z,18.80
2023-04-09T12:29:33.640Z,18.67
2023-04-09T12:32:03.735Z,18.88
2023-04-09T12:34:32.729Z,17.33
2023-04-09T12:37:01.756Z,18.30
2023-04-09T12:39:33.160Z,17.45
2023-04-09T12:42:06.117Z,19.40
2023-04-09T12:44:40.596Z,16.45
2023-04-09T12:47:09.658Z,18.05
2023-04-09T12:49:39.547Z,18.10
2023-04-09T12:52:11.106Z,17.42
2023-04-09T12:54:41.289Z,19.55
2023-04-09T12:57:10.659Z,17.52
2023-04-09T12:59:41.086Z,22.98
2023-04-09T13:02:09.790Z,15.90
2023-04-09T13:04:38.689Z,16.80
2023-04-09T13:07:08.047Z,16.77
2023-04-09T13:09:37.590Z,15.85
2023-04-09T13:12:08.813Z,14.68
2023-04-09T13:14:42.042Z,19.45
2023-04-09T13:17:11.618Z,17.30
2023-04-09T13:19:42.801Z,15.88
2023-04-09T13:22:12.893Z,14.88
2023-04-09T13:24:43.748Z,13.40
2023-04-09T13:27:16.994Z,13.55
2023-04-09T13:29:47.885Z,14.18
2023-04-09T13:32:18.600Z,14.40
2023-04-09T13:34:47.968Z,14.93
2023-04-09T13:37:17.363Z,15.63
2023-04-09T13:39:47.628Z,16.70
2023-04-09T13:42:19.584Z,16.25
2023-04-09T13:44:53.277Z,15.52
2023-04-09T13:47:25.632Z,13.68
2023-04-09T13:49:54.737Z,14.43
2023-04-09T13:52:24.655Z,15.88
2023-04-09T13:54:54.791Z,16.92
2023-04-09T13:57:23.663Z,17.48
2023-04-09T13:59:54.523Z,16.02
2023-04-09T14:02:25.007Z,16.65
2023-04-09T14:04:54.328Z,14.77
2023-04-09T14:07:23.023Z,14.65
2023-04-09T14:09:52.391Z,14.57
2023-04-09T14:12:21.379Z,16.08
2023-04-09T14:14:50.497Z,13.38
2023-04-09T14:17:20.996Z,14.88
2023-04-09T14:19:51.346Z,13.57
2023-04-09T14:22:20.848Z,15.32
2023-04-09T14:24:51.351Z,14.93
2023-04-09T14:27:19.857Z,13.65
2023-04-09T14:29:49.965Z,14.30
2023-04-09T14:32:23.703Z,13.18
2023-04-09T14:34:53.201Z,13.80
2023-04-09T14:37:23.503Z,13.60
2023-04-09T14:39:52.469Z,14.20
2023-04-09T14:42:21.901Z,17.48
2023-04-09T14:44:51.287Z,13.82
2023-04-09T14:47:22.956Z,32.58
2023-04-09T14:49:52.886Z,135.23
2023-04-09T14:52:27.934Z,21.63
2023-04-09T14:54:57.220Z,14.40
2023-04-09T14:57:27.442Z,16.15
2023-04-09T14:59:56.958Z,15.05
2023-04-09T15:02:28.522Z,13.93
2023-04-09T15:04:58.257Z,15.30
2023-04-09T15:07:27.401Z,14.23
2023-04-09T15:09:56.064Z,13.45
2023-04-09T15:12:26.637Z,14.95
2023-04-09T15:14:57.159Z,12.63
2023-04-09T15:17:29.396Z,14.43
2023-04-09T15:19:58.586Z,14.70
2023-04-09T15:22:27.900Z,12.75
2023-04-09T15:24:56.756Z,14.05
2023-04-09T15:27:31.959Z,13.07
2023-04-09T15:30:01.171Z,13.63
2023-04-09T15:32:42.165Z,13.05
2023-04-09T15:35:19.496Z,13.25
2023-04-09T15:37:50.438Z,13.75
2023-04-09T15:40:19.654Z,13.38
2023-04-09T15:42:49.852Z,14.50
2023-04-09T15:45:21.051Z,40.55
2023-04-09T15:47:54.964Z,11.93
2023-04-09T15:50:25.117Z,11.65
2023-04-09T15:52:57.009Z,23.42
2023-04-09T15:55:26.792Z,11.35
2023-04-09T15:57:56.723Z,11.25
2023-04-09T16:00:30.075Z,12.82
2023-04-09T16:03:02.688Z,16.23
2023-04-09T16:05:34.448Z,11.82
2023-04-09T16:08:04.625Z,12.98
2023-04-09T16:10:33.726Z,12.38
2023-04-09T16:13:03.637Z,12.73
2023-04-09T16:15:34.488Z,14.13
2023-04-09T16:18:04.783Z,19.50
2023-04-09T16:20:35.416Z,14.15
2023-04-09T16:23:07.837Z,15.38
2023-04-09T16:25:39.019Z,22.63
2023-04-09T16:28:14.268Z,21.23
2023-04-09T16:33:14.462Z,18.63
2023-04-09T16:35:43.969Z,17.08
2023-04-09T16:38:14.061Z,20.90
2023-04-09T16:40:44.657Z,21.48
2023-04-09T16:43:14.671Z,22.73
2023-04-09T16:45:47.195Z,17.73
2023-04-09T16:48:33.354Z,20.77
2023-04-09T16:51:02.646Z,19.33
2023-04-09T16:53:31.761Z,20.05
2023-04-09T16:56:02.359Z,21.75
2023-04-09T16:58:33.694Z,20.73
2023-04-09T17:01:06.806Z,19.88
2023-04-09T17:03:37.980Z,18.75
2023-04-09T17:06:09.447Z,23.13
2023-04-09T17:08:40.755Z,21.40
2023-04-09T17:11:11.794Z,19.75
2023-04-09T17:13:41.203Z,22.33
2023-04-09T17:16:11.498Z,20.02
2023-04-09T17:18:41.620Z,22.77
2023-04-09T17:21:10.973Z,18.52
2023-04-09T17:23:43.283Z,20.58
2023-04-09T17:26:14.329Z,19.90
2023-04-09T17:28:48.142Z,20.77
2023-04-09T17:31:20.956Z,17.02
2023-04-09T17:34:05.066Z,15.57
2023-04-09T17:36:34.772Z,18.88
2023-04-09T17:39:16.886Z,16.48
2023-04-09T17:41:48.435Z,22.17
2023-04-09T17:44:20.243Z,16.60
2023-04-09T17:46:54.366Z,17.75
2023-04-09T17:49:27.995Z,19.27
2023-04-09T17:51:59.358Z,18.83
2023-04-09T17:54:33.869Z,18.88
2023-04-09T17:57:07.376Z,18.45
2023-04-09T17:59:38.013Z,18.52
2023-04-09T18:02:09.417Z,17.55
2023-04-09T18:04:39.761Z,19.80
2023-04-09T18:07:10.341Z,17.58
2023-04-09T18:09:43.331Z,18.05
2023-04-09T18:12:13.227Z,18.17
2023-04-09T18:14:44.328Z,22.38
2023-04-09T18:17:15.830Z,18.23
2023-04-09T18:19:46.499Z,18.67
2023-04-09T18:22:16.941Z,18.00
2023-04-09T18:24:45.453Z,21.17
2023-04-09T18:27:14.603Z,18.70
2023-04-09T18:29:43.916Z,19.80
2023-04-09T18:32:15.256Z,24.27
2023-04-09T18:34:47.237Z,23.00
2023-04-09T18:37:18.685Z,21.98
2023-04-09T18:39:48.163Z,23.10
2023-04-09T18:42:16.918Z,23.55
2023-04-09T18:44:46.060Z,22.30
2023-04-09T18:47:16.934Z,23.27
2023-04-09T18:49:49.411Z,20.77
2023-04-09T18:52:28.910Z,21.63
2023-04-09T18:54:59.876Z,26.50
2023-04-09T18:57:43.738Z,19.55
2023-04-09T19:00:16.878Z,25.15
2023-04-09T19:02:50.398Z,62.05
2023-04-09T19:05:23.715Z,54.80
2023-04-09T19:07:55.533Z,26.58
2023-04-09T19:10:24.884Z,23.25
2023-04-09T19:12:56.649Z,18.20
2023-04-09T19:15:35.205Z,20.58
2023-04-09T19:18:05.711Z,20.50
2023-04-09T19:20:48.232Z,19.75
2023-04-09T19:23:22.856Z,21.83
2023-04-09T19:25:55.787Z,20.48
2023-04-09T19:28:29.648Z,22.85
2023-04-09T19:31:12.405Z,19.55
2023-04-09T19:33:43.156Z,24.73
2023-04-09T19:36:23.638Z,20.67
2023-04-09T19:38:56.591Z,20.65
2023-04-09T19:41:26.365Z,22.73
2023-04-09T19:43:56.094Z,25.08
2023-04-09T19:46:26.317Z,22.88
2023-04-09T19:48:57.637Z,27.52
2023-04-09T19:51:31.597Z,24.92
2023-04-09T19:54:08.250Z,25.20
2023-04-09T19:56:47.397Z,31.17
2023-04-09T19:59:21.584Z,24.25
2023-04-09T20:02:01.779Z,22.83
2023-04-09T20:04:33.865Z,26.88
2023-04-09T20:07:06.302Z,34.40
2023-04-09T20:09:44.808Z,26.63
2023-04-09T20:12:17.585Z,43.42
2023-04-09T20:14:58.884Z,30.98
2023-04-09T20:17:34.192Z,33.08
2023-04-09T20:20:15.566Z,27.37
2023-04-09T20:22:48.229Z,30.65
2023-04-09T20:25:17.113Z,32.72
2023-04-09T20:27:46.229Z,31.23
2023-04-09T20:30:16.901Z,28.50
2023-04-09T20:32:45.864Z,38.50
2023-04-09T20:35:17.779Z,35.42
2023-04-09T20:37:49.935Z,33.22
2023-04-09T20:40:22.565Z,29.65
2023-04-09T20:42:52.926Z,26.85
2023-04-09T20:45:21.846Z,30.23
2023-04-09T20:47:52.139Z,32.17
2023-04-09T20:50:21.262Z,29.67
2023-04-09T20:52:51.306Z,27.05
2023-04-09T20:55:20.498Z,25.20
2023-04-09T20:57:49.189Z,26.77
2023-04-09T21:00:19.991Z,24.38
2023-04-09T21:02:51.102Z,26.80
2023-04-09T21:05:23.814Z,25.70
2023-04-09T21:07:57.130Z,26.83
2023-04-09T21:10:26.161Z,27.33
2023-04-09T21:12:54.943Z,31.88
2023-04-09T21:15:24.157Z,24.67
2023-04-09T21:17:53.116Z,31.63
2023-04-09T21:20:22.627Z,25.40
2023-04-09T21:22:52.288Z,28.60
2023-04-09T21:25:23.282Z,34.55
2023-04-09T21:27:52.216Z,25.65
2023-04-09T21:30:21.259Z,23.92
2023-04-09T21:32:59.455Z,26.10
2023-04-09T21:35:29.197Z,29.48
2023-04-09T21:37:58.455Z,28.63
2023-04-09T21:40:31.205Z,34.95
2023-04-09T21:43:01.779Z,33.53
2023-04-09T21:45:43.074Z,30.17
2023-04-09T21:48:12.539Z,35.65
2023-04-09T21:50:42.237Z,35.85
2023-04-09T21:53:12.114Z,38.42
2023-04-09T21:55:42.587Z,41.80
2023-04-09T21:58:12.408Z,45.05
2023-04-09T22:00:41.622Z,31.75
2023-04-09T22:03:11.923Z,35.13
2023-04-09T22:05:41.046Z,35.88
2023-04-09T22:08:09.837Z,31.13
2023-04-09T22:10:38.380Z,38.83
2023-04-09T22:13:09.456Z,43.03
2023-04-09T22:15:38.217Z,37.63
2023-04-09T22:18:07.059Z,37.45
2023-04-09T22:20:43.666Z,38.35
2023-04-09T22:23:12.826Z,35.65
2023-04-09T22:25:42.564Z,37.17
2023-04-09T22:28:14.591Z,44.03
2023-04-09T22:30:43.100Z,41.65
2023-04-09T22:33:12.405Z,37.67
2023-04-09T22:35:42.188Z,36.03
2023-04-09T22:38:14.483Z,45.97
2023-04-09T22:40:43.555Z,36.50
2023-04-09T22:43:14.131Z,33.90
2023-04-09T22:45:43.460Z,29.77
2023-04-09T22:48:14.106Z,32.15
2023-04-09T22:50:44.173Z,31.00
2023-04-09T22:53:13.207Z,32.85
2023-04-09T22:55:47.363Z,31.27
2023-04-09T22:58:19.196Z,35.55
2023-04-09T23:00:49.809Z,35.03
2023-04-09T23:03:23.086Z,37.35
2023-04-09T23:05:52.227Z,47.10
2023-04-09T23:08:21.225Z,37.17
2023-04-09T23:10:52.569Z,37.38
2023-04-09T23:13:22.898Z,38.88
2023-04-09T23:15:52.372Z,43.67
2023-04-09T23:18:21.602Z,47.25
2023-04-09T23:20:50.917Z,37.05
2023-04-09T23:23:19.266Z,34.10
2023-04-09T23:25:48.816Z,41.00
2023-04-09T23:28:18.554Z,43.65
2023-04-09T23:30:48.451Z,38.35
2023-04-09T23:33:16.880Z,42.28
2023-04-09T23:35:45.622Z,39.03
2023-04-09T23:38:15.511Z,36.67
2023-04-09T23:40:47.475Z,41.13
2023-04-09T23:43:20.255Z,34.38
2023-04-09T23:45:52.006Z,36.65
2023-04-09T23:48:24.641Z,37.72
2023-04-09T23:50:55.719Z,37.72
2023-04-09T23:53:24.694Z,36.63
2023-04-09T23:55:53.936Z,36.45
2023-04-09T23:58:23.431Z,35.80
